KRKD/RKD METAR and TAF weather

Enter ICAO airport designator
Station Type Date Time Source
KRKD METAR 2020/08/05 16:56 UTC NOAA

KRKD 051656Z AUTO 19009KT 10SM CLR 24/20 A2995 RMK AO2 SLP140 T02390200


Station Type Date Time Source
KRKD Decoded METAR 2020/08/05 16:56 UTC NOAA

Rockland, Knox County Regional Airport, ME, United States (KRKD) 44-04N 069-06W
Aug 05, 2020 - 12:56 PM EDT / 2020.08.05 1656 UTC
Wind: from the S (190 degrees) at 10 MPH (9 KT):0
Visibility: 10 mile(s):0
Sky conditions: clear
Temperature: 75.0 F (23.9 C)
Dew Point: 68.0 F (20.0 C)
Relative Humidity: 78%
Pressure (altimeter): 29.95 in. Hg (1014 hPa)
ob: KRKD 051656Z AUTO 19009KT 10SM CLR 24/20 A2995 RMK AO2 SLP140 T02390200
cycle: 17

Station Type Date Time Source
KRKD TAF 2020/08/05 12:36 UTC NOAA

KRKD 051132Z 0512/0612 23010KT P6SM SKC
FM051500 20010G16KT P6SM FEW250
FM052300 26004KT P6SM SCT250

Example: see airport list